sensor_id;sensor_type;location;lat;lon;timestamp;P1;durP1;ratioP1;P2;durP2;ratioP2
63818;SDS011;49970;54.976;73.248;2023-09-18T00:00:49;81.90;;;40.67;;
63818;SDS011;49970;54.976;73.248;2023-09-18T00:03:16;80.07;;;41.55;;
63818;SDS011;49970;54.976;73.248;2023-09-18T00:05:45;86.35;;;42.10;;
63818;SDS011;49970;54.976;73.248;2023-09-18T00:08:14;91.45;;;44.05;;
63818;SDS011;49970;54.976;73.248;2023-09-18T00:10:41;83.85;;;40.55;;
63818;SDS011;49970;54.976;73.248;2023-09-18T00:13:08;79.28;;;40.95;;
63818;SDS011;49970;54.976;73.248;2023-09-18T00:15:34;101.05;;;41.10;;
63818;SDS011;49970;54.976;73.248;2023-09-18T00:18:01;89.30;;;41.65;;
63818;SDS011;49970;54.976;73.248;2023-09-18T00:20:27;81.25;;;41.80;;
63818;SDS011;49970;54.976;73.248;2023-09-18T00:22:54;84.80;;;43.08;;
63818;SDS011;49970;54.976;73.248;2023-09-18T00:25:21;88.57;;;43.58;;
63818;SDS011;49970;54.976;73.248;2023-09-18T00:27:48;80.10;;;40.15;;
63818;SDS011;49970;54.976;73.248;2023-09-18T00:30:15;70.25;;;39.05;;
63818;SDS011;49970;54.976;73.248;2023-09-18T00:32:41;78.88;;;38.78;;
63818;SDS011;49970;54.976;73.248;2023-09-18T00:35:07;89.28;;;41.08;;
63818;SDS011;49970;54.976;73.248;2023-09-18T00:37:34;79.72;;;40.22;;
63818;SDS011;49970;54.976;73.248;2023-09-18T00:40:02;91.47;;;40.72;;
63818;SDS011;49970;54.976;73.248;2023-09-18T00:42:30;86.03;;;42.38;;
63818;SDS011;49970;54.976;73.248;2023-09-18T00:44:57;66.15;;;38.17;;
63818;SDS011;49970;54.976;73.248;2023-09-18T00:47:24;89.72;;;41.20;;
63818;SDS011;49970;54.976;73.248;2023-09-18T00:49:50;78.97;;;37.22;;
63818;SDS011;49970;54.976;73.248;2023-09-18T00:52:18;68.25;;;38.22;;
63818;SDS011;49970;54.976;73.248;2023-09-18T00:54:47;81.20;;;40.10;;
63818;SDS011;49970;54.976;73.248;2023-09-18T00:57:14;76.18;;;37.47;;
63818;SDS011;49970;54.976;73.248;2023-09-18T00:59:40;80.85;;;39.42;;
63818;SDS011;49970;54.976;73.248;2023-09-18T01:02:07;81.03;;;38.72;;
63818;SDS011;49970;54.976;73.248;2023-09-18T01:04:34;83.82;;;38.22;;
63818;SDS011;49970;54.976;73.248;2023-09-18T01:07:00;82.47;;;37.63;;
63818;SDS011;49970;54.976;73.248;2023-09-18T01:09:30;87.43;;;36.53;;
63818;SDS011;49970;54.976;73.248;2023-09-18T01:12:04;81.38;;;36.28;;
63818;SDS011;49970;54.976;73.248;2023-09-18T01:14:44;81.65;;;38.17;;
63818;SDS011;49970;54.976;73.248;2023-09-18T01:17:19;82.55;;;36.38;;
63818;SDS011;49970;54.976;73.248;2023-09-18T01:19:47;83.82;;;38.83;;
63818;SDS011;49970;54.976;73.248;2023-09-18T01:22:14;69.47;;;37.13;;
63818;SDS011;49970;54.976;73.248;2023-09-18T01:24:45;83.72;;;38.00;;
63818;SDS011;49970;54.976;73.248;2023-09-18T01:27:16;95.18;;;39.90;;
63818;SDS011;49970;54.976;73.248;2023-09-18T01:29:46;85.30;;;39.33;;
63818;SDS011;49970;54.976;73.248;2023-09-18T01:32:13;98.22;;;40.35;;
63818;SDS011;49970;54.976;73.248;2023-09-18T01:34:50;109.00;;;42.05;;
63818;SDS011;49970;54.976;73.248;2023-09-18T01:37:21;104.88;;;40.22;;
63818;SDS011;49970;54.976;73.248;2023-09-18T01:39:50;93.78;;;40.60;;
63818;SDS011;49970;54.976;73.248;2023-09-18T01:42:17;94.82;;;42.90;;
63818;SDS011;49970;54.976;73.248;2023-09-18T01:44:45;117.50;;;42.95;;
63818;SDS011;49970;54.976;73.248;2023-09-18T01:47:13;108.32;;;43.42;;
63818;SDS011;49970;54.976;73.248;2023-09-18T01:49:42;103.78;;;41.17;;
63818;SDS011;49970;54.976;73.248;2023-09-18T01:52:09;120.95;;;43.88;;
63818;SDS011;49970;54.976;73.248;2023-09-18T01:54:35;102.80;;;44.65;;
63818;SDS011;49970;54.976;73.248;2023-09-18T01:57:02;134.95;;;46.40;;
63818;SDS011;49970;54.976;73.248;2023-09-18T01:59:29;121.05;;;46.47;;
63818;SDS011;49970;54.976;73.248;2023-09-18T02:01:56;117.00;;;49.08;;
63818;SDS011;49970;54.976;73.248;2023-09-18T02:04:23;124.78;;;47.22;;
63818;SDS011;49970;54.976;73.248;2023-09-18T02:06:51;115.40;;;43.53;;
63818;SDS011;49970;54.976;73.248;2023-09-18T02:09:17;90.47;;;42.88;;
63818;SDS011;49970;54.976;73.248;2023-09-18T02:11:44;106.78;;;43.58;;
63818;SDS011;49970;54.976;73.248;2023-09-18T02:14:12;126.78;;;46.78;;
63818;SDS011;49970;54.976;73.248;2023-09-18T02:16:39;126.07;;;48.78;;
63818;SDS011;49970;54.976;73.248;2023-09-18T02:19:10;117.05;;;46.00;;
63818;SDS011;49970;54.976;73.248;2023-09-18T02:21:38;128.07;;;47.35;;
63818;SDS011;49970;54.976;73.248;2023-09-18T02:24:04;129.25;;;47.38;;
63818;SDS011;49970;54.976;73.248;2023-09-18T02:26:31;129.43;;;48.00;;
63818;SDS011;49970;54.976;73.248;2023-09-18T02:28:59;144.07;;;46.10;;
63818;SDS011;49970;54.976;73.248;2023-09-18T02:31:26;141.30;;;48.63;;
63818;SDS011;49970;54.976;73.248;2023-09-18T02:33:53;165.27;;;46.92;;
63818;SDS011;49970;54.976;73.248;2023-09-18T02:36:20;143.45;;;46.58;;
63818;SDS011;49970;54.976;73.248;2023-09-18T02:38:49;134.77;;;45.92;;
63818;SDS011;49970;54.976;73.248;2023-09-18T02:41:16;133.80;;;46.13;;
63818;SDS011;49970;54.976;73.248;2023-09-18T02:43:42;127.10;;;44.50;;
63818;SDS011;49970;54.976;73.248;2023-09-18T02:46:08;128.32;;;42.97;;
63818;SDS011;49970;54.976;73.248;2023-09-18T02:48:34;124.82;;;42.70;;
63818;SDS011;49970;54.976;73.248;2023-09-18T02:51:01;124.97;;;43.00;;
63818;SDS011;49970;54.976;73.248;2023-09-18T02:53:28;127.53;;;43.08;;
63818;SDS011;49970;54.976;73.248;2023-09-18T02:55:57;117.93;;;44.97;;
63818;SDS011;49970;54.976;73.248;2023-09-18T02:58:24;123.10;;;43.33;;
63818;SDS011;49970;54.976;73.248;2023-09-18T03:00:56;142.23;;;45.58;;
63818;SDS011;49970;54.976;73.248;2023-09-18T03:03:30;153.35;;;45.53;;
63818;SDS011;49970;54.976;73.248;2023-09-18T03:06:00;117.28;;;41.83;;
63818;SDS011;49970;54.976;73.248;2023-09-18T03:08:29;139.10;;;45.60;;
63818;SDS011;49970;54.976;73.248;2023-09-18T03:10:56;166.07;;;44.90;;
63818;SDS011;49970;54.976;73.248;2023-09-18T03:13:23;115.78;;;40.25;;
63818;SDS011;49970;54.976;73.248;2023-09-18T03:15:50;111.28;;;40.70;;
63818;SDS011;49970;54.976;73.248;2023-09-18T03:18:16;99.72;;;38.83;;
63818;SDS011;49970;54.976;73.248;2023-09-18T03:20:42;97.68;;;35.53;;
63818;SDS011;49970;54.976;73.248;2023-09-18T03:23:09;94.82;;;34.88;;
63818;SDS011;49970;54.976;73.248;2023-09-18T03:25:35;94.32;;;32.47;;
63818;SDS011;49970;54.976;73.248;2023-09-18T03:28:03;81.47;;;31.60;;
63818;SDS011;49970;54.976;73.248;2023-09-18T03:30:32;90.75;;;31.63;;
63818;SDS011;49970;54.976;73.248;2023-09-18T03:32:58;89.47;;;33.47;;
63818;SDS011;49970;54.976;73.248;2023-09-18T03:35:28;124.55;;;32.80;;
63818;SDS011;49970;54.976;73.248;2023-09-18T03:37:55;111.15;;;32.30;;
63818;SDS011;49970;54.976;73.248;2023-09-18T03:40:21;116.22;;;31.75;;
63818;SDS011;49970;54.976;73.248;2023-09-18T03:42:49;94.78;;;34.45;;
63818;SDS011;49970;54.976;73.248;2023-09-18T03:45:16;107.03;;;35.15;;
63818;SDS011;49970;54.976;73.248;2023-09-18T03:47:46;109.25;;;33.95;;
63818;SDS011;49970;54.976;73.248;2023-09-18T03:50:12;112.53;;;35.38;;
63818;SDS011;49970;54.976;73.248;2023-09-18T03:52:39;141.57;;;34.40;;
63818;SDS011;49970;54.976;73.248;2023-09-18T03:55:07;117.32;;;34.00;;
63818;SDS011;49970;54.976;73.248;2023-09-18T03:57:34;133.98;;;39.53;;
63818;SDS011;49970;54.976;73.248;2023-09-18T04:00:03;170.43;;;40.22;;
63818;SDS011;49970;54.976;73.248;2023-09-18T04:02:37;132.57;;;37.80;;
63818;SDS011;49970;54.976;73.248;2023-09-18T04:05:04;159.38;;;38.00;;
63818;SDS011;49970;54.976;73.248;2023-09-18T04:07:30;125.63;;;37.53;;
63818;SDS011;49970;54.976;73.248;2023-09-18T04:09:59;158.93;;;38.97;;
63818;SDS011;49970;54.976;73.248;2023-09-18T04:12:25;137.55;;;41.15;;
63818;SDS011;49970;54.976;73.248;2023-09-18T04:14:52;143.90;;;37.10;;
63818;SDS011;49970;54.976;73.248;2023-09-18T04:17:18;132.07;;;37.63;;
63818;SDS011;49970;54.976;73.248;2023-09-18T04:19:44;130.13;;;37.78;;
63818;SDS011;49970;54.976;73.248;2023-09-18T04:22:12;131.30;;;38.03;;
63818;SDS011;49970;54.976;73.248;2023-09-18T04:24:38;142.82;;;35.90;;
63818;SDS011;49970;54.976;73.248;2023-09-18T04:27:04;144.70;;;35.88;;
63818;SDS011;49970;54.976;73.248;2023-09-18T04:29:31;104.05;;;31.77;;
63818;SDS011;49970;54.976;73.248;2023-09-18T04:31:57;101.95;;;32.28;;
63818;SDS011;49970;54.976;73.248;2023-09-18T04:34:24;86.82;;;28.48;;
63818;SDS011;49970;54.976;73.248;2023-09-18T04:36:50;75.18;;;27.25;;
63818;SDS011;49970;54.976;73.248;2023-09-18T04:39:17;99.90;;;27.25;;
63818;SDS011;49970;54.976;73.248;2023-09-18T04:41:43;99.80;;;26.98;;
63818;SDS011;49970;54.976;73.248;2023-09-18T04:44:09;94.43;;;28.35;;
63818;SDS011;49970;54.976;73.248;2023-09-18T04:46:38;97.65;;;28.45;;
63818;SDS011;49970;54.976;73.248;2023-09-18T04:49:10;132.57;;;31.52;;
63818;SDS011;49970;54.976;73.248;2023-09-18T04:51:37;118.30;;;30.70;;
63818;SDS011;49970;54.976;73.248;2023-09-18T04:54:05;148.95;;;30.83;;
63818;SDS011;49970;54.976;73.248;2023-09-18T04:56:33;136.23;;;30.60;;
63818;SDS011;49970;54.976;73.248;2023-09-18T04:58:59;113.35;;;27.33;;
63818;SDS011;49970;54.976;73.248;2023-09-18T05:01:26;89.63;;;23.70;;
63818;SDS011;49970;54.976;73.248;2023-09-18T05:03:53;84.40;;;22.95;;
63818;SDS011;49970;54.976;73.248;2023-09-18T05:06:19;70.93;;;20.30;;
63818;SDS011;49970;54.976;73.248;2023-09-18T05:08:46;66.22;;;16.30;;
63818;SDS011;49970;54.976;73.248;2023-09-18T05:11:12;62.08;;;19.17;;
63818;SDS011;49970;54.976;73.248;2023-09-18T05:13:40;51.83;;;14.48;;
63818;SDS011;49970;54.976;73.248;2023-09-18T05:16:06;65.57;;;13.77;;
63818;SDS011;49970;54.976;73.248;2023-09-18T05:18:32;66.88;;;14.15;;
63818;SDS011;49970;54.976;73.248;2023-09-18T05:20:58;59.78;;;16.88;;
63818;SDS011;49970;54.976;73.248;2023-09-18T05:23:25;65.40;;;20.35;;
63818;SDS011;49970;54.976;73.248;2023-09-18T05:25:51;79.30;;;22.05;;
63818;SDS011;49970;54.976;73.248;2023-09-18T05:28:18;98.10;;;19.55;;
63818;SDS011;49970;54.976;73.248;2023-09-18T05:30:44;93.80;;;21.15;;
63818;SDS011;49970;54.976;73.248;2023-09-18T05:33:11;100.82;;;26.65;;
63818;SDS011;49970;54.976;73.248;2023-09-18T05:35:41;90.47;;;24.70;;
63818;SDS011;49970;54.976;73.248;2023-09-18T05:38:10;85.65;;;26.85;;
63818;SDS011;49970;54.976;73.248;2023-09-18T05:40:39;93.95;;;26.05;;
63818;SDS011;49970;54.976;73.248;2023-09-18T05:43:06;105.57;;;30.85;;
63818;SDS011;49970;54.976;73.248;2023-09-18T05:45:33;78.45;;;27.58;;
63818;SDS011;49970;54.976;73.248;2023-09-18T05:47:59;92.93;;;25.98;;
63818;SDS011;49970;54.976;73.248;2023-09-18T05:50:32;71.05;;;25.10;;
63818;SDS011;49970;54.976;73.248;2023-09-18T05:53:02;86.93;;;28.75;;
63818;SDS011;49970;54.976;73.248;2023-09-18T05:55:31;96.60;;;29.63;;
63818;SDS011;49970;54.976;73.248;2023-09-18T05:57:59;76.32;;;19.45;;
63818;SDS011;49970;54.976;73.248;2023-09-18T06:00:26;73.80;;;20.92;;
63818;SDS011;49970;54.976;73.248;2023-09-18T06:02:52;59.72;;;22.48;;
63818;SDS011;49970;54.976;73.248;2023-09-18T06:05:18;50.05;;;20.20;;
63818;SDS011;49970;54.976;73.248;2023-09-18T06:07:48;35.50;;;14.15;;
63818;SDS011;49970;54.976;73.248;2023-09-18T06:10:15;54.60;;;15.00;;
63818;SDS011;49970;54.976;73.248;2023-09-18T06:12:43;31.70;;;13.57;;
63818;SDS011;49970;54.976;73.248;2023-09-18T06:15:10;59.42;;;17.73;;
63818;SDS011;49970;54.976;73.248;2023-09-18T06:17:41;45.17;;;16.35;;
63818;SDS011;49970;54.976;73.248;2023-09-18T06:20:08;38.17;;;18.63;;
63818;SDS011;49970;54.976;73.248;2023-09-18T06:22:39;50.88;;;18.27;;
63818;SDS011;49970;54.976;73.248;2023-09-18T06:25:06;40.15;;;18.10;;
63818;SDS011;49970;54.976;73.248;2023-09-18T06:27:36;37.78;;;13.07;;
63818;SDS011;49970;54.976;73.248;2023-09-18T06:30:04;25.23;;;9.07;;
63818;SDS011;49970;54.976;73.248;2023-09-18T06:32:32;42.17;;;9.38;;
63818;SDS011;49970;54.976;73.248;2023-09-18T06:34:58;38.65;;;9.95;;
63818;SDS011;49970;54.976;73.248;2023-09-18T06:37:24;27.35;;;10.55;;
63818;SDS011;49970;54.976;73.248;2023-09-18T06:39:51;35.65;;;11.05;;
63818;SDS011;49970;54.976;73.248;2023-09-18T06:42:17;31.23;;;10.25;;
63818;SDS011;49970;54.976;73.248;2023-09-18T06:44:48;44.83;;;10.18;;
63818;SDS011;49970;54.976;73.248;2023-09-18T06:47:15;52.60;;;11.55;;
63818;SDS011;49970;54.976;73.248;2023-09-18T06:49:41;56.20;;;11.57;;
63818;SDS011;49970;54.976;73.248;2023-09-18T06:54:25;29.60;;;10.00;;
63818;SDS011;49970;54.976;73.248;2023-09-18T06:58:15;37.00;;;9.93;;
63818;SDS011;49970;54.976;73.248;2023-09-18T07:02:05;43.25;;;9.02;;
63818;SDS011;49970;54.976;73.248;2023-09-18T07:05:54;45.70;;;9.52;;
63818;SDS011;49970;54.976;73.248;2023-09-18T07:11:10;32.45;;;10.60;;
63818;SDS011;49970;54.976;73.248;2023-09-18T07:15:01;34.15;;;9.30;;
63818;SDS011;49970;54.976;73.248;2023-09-18T07:18:51;44.03;;;9.95;;
63818;SDS011;49970;54.976;73.248;2023-09-18T07:22:58;53.92;;;11.15;;
63818;SDS011;49970;54.976;73.248;2023-09-18T07:26:49;65.65;;;11.02;;
63818;SDS011;49970;54.976;73.248;2023-09-18T07:30:39;43.50;;;8.65;;
63818;SDS011;49970;54.976;73.248;2023-09-18T07:34:37;39.08;;;9.05;;
63818;SDS011;49970;54.976;73.248;2023-09-18T07:38:28;35.63;;;7.43;;
63818;SDS011;49970;54.976;73.248;2023-09-18T07:42:18;24.38;;;9.52;;
63818;SDS011;49970;54.976;73.248;2023-09-18T07:46:09;40.20;;;10.90;;
63818;SDS011;49970;54.976;73.248;2023-09-18T07:49:59;56.13;;;11.05;;
63818;SDS011;49970;54.976;73.248;2023-09-18T07:58:10;49.50;;;10.13;;
63818;SDS011;49970;54.976;73.248;2023-09-18T08:02:02;50.95;;;8.40;;
63818;SDS011;49970;54.976;73.248;2023-09-18T08:05:52;48.05;;;7.60;;
63818;SDS011;49970;54.976;73.248;2023-09-18T08:09:41;19.92;;;6.10;;
63818;SDS011;49970;54.976;73.248;2023-09-18T08:13:30;18.40;;;5.22;;
63818;SDS011;49970;54.976;73.248;2023-09-18T08:21:35;29.23;;;7.50;;
63818;SDS011;49970;54.976;73.248;2023-09-18T08:25:27;27.45;;;7.53;;
63818;SDS011;49970;54.976;73.248;2023-09-18T08:29:19;35.95;;;8.10;;
63818;SDS011;49970;54.976;73.248;2023-09-18T08:33:08;27.30;;;6.97;;
63818;SDS011;49970;54.976;73.248;2023-09-18T08:36:58;24.80;;;4.40;;
63818;SDS011;49970;54.976;73.248;2023-09-18T08:40:48;16.50;;;4.60;;
63818;SDS011;49970;54.976;73.248;2023-09-18T08:44:38;23.90;;;4.18;;
63818;SDS011;49970;54.976;73.248;2023-09-18T08:48:27;14.95;;;4.60;;
63818;SDS011;49970;54.976;73.248;2023-09-18T08:52:42;11.73;;;4.15;;
63818;SDS011;49970;54.976;73.248;2023-09-18T08:56:33;14.75;;;3.65;;
63818;SDS011;49970;54.976;73.248;2023-09-18T09:00:25;9.57;;;3.60;;
63818;SDS011;49970;54.976;73.248;2023-09-18T09:08:11;29.90;;;4.22;;
63818;SDS011;49970;54.976;73.248;2023-09-18T09:37:38;26.98;;;4.20;;
63818;SDS011;49970;54.976;73.248;2023-09-18T09:40:05;9.63;;;3.15;;
63818;SDS011;49970;54.976;73.248;2023-09-18T09:42:38;6.43;;;2.95;;
63818;SDS011;49970;54.976;73.248;2023-09-18T09:46:14;8.95;;;3.97;;
63818;SDS011;49970;54.976;73.248;2023-09-18T09:49:01;9.77;;;3.10;;
63818;SDS011;49970;54.976;73.248;2023-09-18T09:51:32;10.63;;;3.78;;
63818;SDS011;49970;54.976;73.248;2023-09-18T09:54:00;14.70;;;3.78;;
63818;SDS011;49970;54.976;73.248;2023-09-18T09:56:45;28.63;;;3.85;;
63818;SDS011;49970;54.976;73.248;2023-09-18T09:59:14;18.77;;;4.32;;
63818;SDS011;49970;54.976;73.248;2023-09-18T10:01:41;9.80;;;3.20;;
63818;SDS011;49970;54.976;73.248;2023-09-18T10:04:13;16.85;;;4.10;;
63818;SDS011;49970;54.976;73.248;2023-09-18T10:06:43;17.58;;;3.50;;
63818;SDS011;49970;54.976;73.248;2023-09-18T10:09:17;19.48;;;4.18;;
63818;SDS011;49970;54.976;73.248;2023-09-18T10:11:46;20.85;;;5.00;;
63818;SDS011;49970;54.976;73.248;2023-09-18T10:14:20;27.77;;;4.32;;
63818;SDS011;49970;54.976;73.248;2023-09-18T10:16:53;16.20;;;4.25;;
63818;SDS011;49970;54.976;73.248;2023-09-18T10:24:48;34.28;;;5.22;;
63818;SDS011;49970;54.976;73.248;2023-09-18T10:27:18;18.80;;;4.93;;
63818;SDS011;49970;54.976;73.248;2023-09-18T10:29:49;27.08;;;5.25;;
63818;SDS011;49970;54.976;73.248;2023-09-18T10:32:17;24.98;;;4.97;;
63818;SDS011;49970;54.976;73.248;2023-09-18T10:34:47;22.25;;;5.35;;
63818;SDS011;49970;54.976;73.248;2023-09-18T10:37:14;43.58;;;5.85;;
63818;SDS011;49970;54.976;73.248;2023-09-18T10:39:41;20.23;;;6.03;;
63818;SDS011;49970;54.976;73.248;2023-09-18T10:42:10;38.05;;;6.50;;
63818;SDS011;49970;54.976;73.248;2023-09-18T10:44:45;49.33;;;5.53;;
63818;SDS011;49970;54.976;73.248;2023-09-18T10:47:14;38.00;;;6.63;;
63818;SDS011;49970;54.976;73.248;2023-09-18T10:49:42;29.98;;;6.70;;
63818;SDS011;49970;54.976;73.248;2023-09-18T10:52:12;58.53;;;7.13;;
63818;SDS011;49970;54.976;73.248;2023-09-18T10:54:39;43.15;;;7.15;;
63818;SDS011;49970;54.976;73.248;2023-09-18T10:57:06;27.70;;;5.53;;
63818;SDS011;49970;54.976;73.248;2023-09-18T10:59:32;40.67;;;5.55;;
63818;SDS011;49970;54.976;73.248;2023-09-18T11:02:03;36.20;;;5.90;;
63818;SDS011;49970;54.976;73.248;2023-09-18T11:04:32;43.45;;;4.95;;
63818;SDS011;49970;54.976;73.248;2023-09-18T11:09:28;22.13;;;4.90;;
63818;SDS011;49970;54.976;73.248;2023-09-18T11:15:24;23.50;;;4.72;;
63818;SDS011;49970;54.976;73.248;2023-09-18T11:19:10;22.50;;;6.03;;
63818;SDS011;49970;54.976;73.248;2023-09-18T11:26:28;22.83;;;5.00;;
63818;SDS011;49970;54.976;73.248;2023-09-18T11:30:16;33.47;;;6.05;;
63818;SDS011;49970;54.976;73.248;2023-09-18T11:33:45;36.28;;;5.65;;
63818;SDS011;49970;54.976;73.248;2023-09-18T11:38:58;15.48;;;4.65;;
63818;SDS011;49970;54.976;73.248;2023-09-18T11:41:35;15.82;;;5.20;;
63818;SDS011;49970;54.976;73.248;2023-09-18T11:46:45;33.50;;;5.63;;
63818;SDS011;49970;54.976;73.248;2023-09-18T11:49:20;32.17;;;5.20;;
63818;SDS011;49970;54.976;73.248;2023-09-18T11:51:47;35.40;;;5.57;;
63818;SDS011;49970;54.976;73.248;2023-09-18T11:54:15;21.15;;;4.50;;
63818;SDS011;49970;54.976;73.248;2023-09-18T11:56:43;20.65;;;3.85;;
63818;SDS011;49970;54.976;73.248;2023-09-18T11:59:10;19.52;;;3.33;;
63818;SDS011;49970;54.976;73.248;2023-09-18T12:01:37;16.45;;;3.85;;
63818;SDS011;49970;54.976;73.248;2023-09-18T12:04:05;20.60;;;4.38;;
63818;SDS011;49970;54.976;73.248;2023-09-18T12:06:38;19.60;;;4.70;;
63818;SDS011;49970;54.976;73.248;2023-09-18T12:09:06;35.25;;;4.55;;
63818;SDS011;49970;54.976;73.248;2023-09-18T12:11:33;31.52;;;5.25;;
63818;SDS011;49970;54.976;73.248;2023-09-18T12:14:18;21.83;;;4.60;;
63818;SDS011;49970;54.976;73.248;2023-09-18T12:16:46;13.25;;;4.30;;
63818;SDS011;49970;54.976;73.248;2023-09-18T12:19:16;21.00;;;5.07;;
63818;SDS011;49970;54.976;73.248;2023-09-18T12:21:45;25.60;;;5.05;;
63818;SDS011;49970;54.976;73.248;2023-09-18T12:24:14;33.60;;;4.32;;
63818;SDS011;49970;54.976;73.248;2023-09-18T12:26:50;20.08;;;4.20;;
63818;SDS011;49970;54.976;73.248;2023-09-18T12:29:18;18.63;;;4.65;;
63818;SDS011;49970;54.976;73.248;2023-09-18T12:31:45;17.05;;;4.53;;
63818;SDS011;49970;54.976;73.248;2023-09-18T12:34:19;23.90;;;4.20;;
63818;SDS011;49970;54.976;73.248;2023-09-18T12:39:02;29.45;;;4.13;;
63818;SDS011;49970;54.976;73.248;2023-09-18T12:42:54;32.15;;;4.45;;
63818;SDS011;49970;54.976;73.248;2023-09-18T12:51:06;30.90;;;4.47;;
63818;SDS011;49970;54.976;73.248;2023-09-18T12:55:01;47.05;;;4.95;;
63818;SDS011;49970;54.976;73.248;2023-09-18T12:58:59;18.83;;;4.82;;
63818;SDS011;49970;54.976;73.248;2023-09-18T13:02:49;23.95;;;3.65;;
63818;SDS011;49970;54.976;73.248;2023-09-18T13:06:42;32.70;;;4.40;;
63818;SDS011;49970;54.976;73.248;2023-09-18T13:10:45;25.95;;;5.30;;
63818;SDS011;49970;54.976;73.248;2023-09-18T13:18:32;42.63;;;5.38;;
63818;SDS011;49970;54.976;73.248;2023-09-18T13:22:25;55.00;;;6.70;;
63818;SDS011;49970;54.976;73.248;2023-09-18T13:26:18;55.13;;;7.03;;
63818;SDS011;49970;54.976;73.248;2023-09-18T13:28:44;52.40;;;6.78;;
63818;SDS011;49970;54.976;73.248;2023-09-18T13:31:11;41.47;;;6.25;;
63818;SDS011;49970;54.976;73.248;2023-09-18T13:33:40;53.38;;;6.68;;
63818;SDS011;49970;54.976;73.248;2023-09-18T13:36:06;58.85;;;6.30;;
63818;SDS011;49970;54.976;73.248;2023-09-18T13:38:32;31.60;;;5.47;;
63818;SDS011;49970;54.976;73.248;2023-09-18T13:40:58;26.70;;;6.55;;
63818;SDS011;49970;54.976;73.248;2023-09-18T13:43:25;46.10;;;6.03;;
63818;SDS011;49970;54.976;73.248;2023-09-18T13:45:53;40.40;;;5.47;;
63818;SDS011;49970;54.976;73.248;2023-09-18T13:48:21;46.53;;;6.38;;
63818;SDS011;49970;54.976;73.248;2023-09-18T13:50:48;61.05;;;6.93;;
63818;SDS011;49970;54.976;73.248;2023-09-18T13:53:17;54.50;;;6.28;;
63818;SDS011;49970;54.976;73.248;2023-09-18T13:55:43;63.70;;;7.43;;
63818;SDS011;49970;54.976;73.248;2023-09-18T13:58:09;47.35;;;6.93;;
63818;SDS011;49970;54.976;73.248;2023-09-18T14:00:36;81.50;;;8.00;;
63818;SDS011;49970;54.976;73.248;2023-09-18T14:03:02;64.60;;;7.55;;
63818;SDS011;49970;54.976;73.248;2023-09-18T14:05:29;98.10;;;8.75;;
63818;SDS011;49970;54.976;73.248;2023-09-18T14:07:56;94.78;;;8.98;;
63818;SDS011;49970;54.976;73.248;2023-09-18T14:10:25;83.82;;;8.48;;
63818;SDS011;49970;54.976;73.248;2023-09-18T14:12:52;92.88;;;9.30;;
63818;SDS011;49970;54.976;73.248;2023-09-18T14:15:18;77.55;;;10.43;;
63818;SDS011;49970;54.976;73.248;2023-09-18T14:17:45;74.32;;;12.15;;
63818;SDS011;49970;54.976;73.248;2023-09-18T14:20:11;96.60;;;11.88;;
63818;SDS011;49970;54.976;73.248;2023-09-18T14:22:38;79.68;;;11.15;;
63818;SDS011;49970;54.976;73.248;2023-09-18T14:25:05;89.75;;;15.05;;
63818;SDS011;49970;54.976;73.248;2023-09-18T14:27:32;75.47;;;13.88;;
63818;SDS011;49970;54.976;73.248;2023-09-18T14:30:03;117.43;;;22.48;;
63818;SDS011;49970;54.976;73.248;2023-09-18T14:32:32;93.65;;;22.67;;
63818;SDS011;49970;54.976;73.248;2023-09-18T14:34:59;101.70;;;22.38;;
63818;SDS011;49970;54.976;73.248;2023-09-18T14:37:36;86.00;;;21.27;;
63818;SDS011;49970;54.976;73.248;2023-09-18T14:40:03;103.55;;;19.95;;
63818;SDS011;49970;54.976;73.248;2023-09-18T14:42:29;108.75;;;21.20;;
63818;SDS011;49970;54.976;73.248;2023-09-18T14:44:56;91.47;;;20.83;;
63818;SDS011;49970;54.976;73.248;2023-09-18T14:48:25;88.47;;;19.05;;
63818;SDS011;49970;54.976;73.248;2023-09-18T14:50:55;87.82;;;19.35;;
63818;SDS011;49970;54.976;73.248;2023-09-18T14:53:21;75.57;;;16.83;;
63818;SDS011;49970;54.976;73.248;2023-09-18T14:55:47;69.22;;;15.52;;
63818;SDS011;49970;54.976;73.248;2023-09-18T14:58:14;54.53;;;14.43;;
63818;SDS011;49970;54.976;73.248;2023-09-18T15:00:40;71.45;;;14.63;;
63818;SDS011;49970;54.976;73.248;2023-09-18T15:03:06;81.70;;;14.52;;
63818;SDS011;49970;54.976;73.248;2023-09-18T15:05:33;56.60;;;13.82;;
63818;SDS011;49970;54.976;73.248;2023-09-18T15:07:59;86.47;;;16.40;;
63818;SDS011;49970;54.976;73.248;2023-09-18T15:10:25;83.72;;;16.23;;
63818;SDS011;49970;54.976;73.248;2023-09-18T15:12:53;75.30;;;15.10;;
63818;SDS011;49970;54.976;73.248;2023-09-18T15:15:20;84.68;;;16.27;;
63818;SDS011;49970;54.976;73.248;2023-09-18T15:17:46;109.18;;;17.98;;
63818;SDS011;49970;54.976;73.248;2023-09-18T15:20:13;140.85;;;17.92;;
63818;SDS011;49970;54.976;73.248;2023-09-18T15:22:42;146.00;;;21.65;;
63818;SDS011;49970;54.976;73.248;2023-09-18T15:25:09;149.30;;;19.33;;
63818;SDS011;49970;54.976;73.248;2023-09-18T15:27:38;164.13;;;21.25;;
63818;SDS011;49970;54.976;73.248;2023-09-18T15:30:05;190.60;;;22.45;;
63818;SDS011;49970;54.976;73.248;2023-09-18T15:32:53;177.07;;;24.10;;
63818;SDS011;49970;54.976;73.248;2023-09-18T15:35:24;175.10;;;26.20;;
63818;SDS011;49970;54.976;73.248;2023-09-18T15:37:53;173.65;;;26.45;;
63818;SDS011;49970;54.976;73.248;2023-09-18T15:40:21;193.30;;;27.63;;
63818;SDS011;49970;54.976;73.248;2023-09-18T15:42:48;224.23;;;32.78;;
63818;SDS011;49970;54.976;73.248;2023-09-18T15:45:15;325.10;;;41.20;;
63818;SDS011;49970;54.976;73.248;2023-09-18T15:47:42;373.85;;;47.78;;
63818;SDS011;49970;54.976;73.248;2023-09-18T15:50:12;376.63;;;51.70;;
63818;SDS011;49970;54.976;73.248;2023-09-18T15:52:45;337.73;;;50.85;;
63818;SDS011;49970;54.976;73.248;2023-09-18T15:55:12;317.40;;;53.50;;
63818;SDS011;49970;54.976;73.248;2023-09-18T15:57:46;314.33;;;56.85;;
63818;SDS011;49970;54.976;73.248;2023-09-18T16:00:15;334.60;;;55.28;;
63818;SDS011;49970;54.976;73.248;2023-09-18T16:02:46;270.42;;;51.10;;
63818;SDS011;49970;54.976;73.248;2023-09-18T16:05:17;199.40;;;44.80;;
63818;SDS011;49970;54.976;73.248;2023-09-18T16:07:52;157.05;;;43.75;;
63818;SDS011;49970;54.976;73.248;2023-09-18T16:10:36;155.23;;;41.60;;
63818;SDS011;49970;54.976;73.248;2023-09-18T16:13:16;142.55;;;39.30;;
63818;SDS011;49970;54.976;73.248;2023-09-18T16:16:00;130.98;;;36.92;;
63818;SDS011;49970;54.976;73.248;2023-09-18T16:18:38;123.25;;;36.47;;
63818;SDS011;49970;54.976;73.248;2023-09-18T16:21:05;119.05;;;37.45;;
63818;SDS011;49970;54.976;73.248;2023-09-18T16:23:47;129.38;;;40.45;;
63818;SDS011;49970;54.976;73.248;2023-09-18T16:26:14;119.15;;;40.58;;
63818;SDS011;49970;54.976;73.248;2023-09-18T16:28:41;114.75;;;38.83;;
63818;SDS011;49970;54.976;73.248;2023-09-18T16:31:08;117.32;;;40.53;;
63818;SDS011;49970;54.976;73.248;2023-09-18T16:33:35;131.43;;;39.90;;